Time;durP1;ratioP1;P1;durP2;ratioP2;P2;SDS_P1;SDS_P2;PMS_P1;PMS_P2;Temp;Humidity;BMP_temperature;BMP_pressure;BME280_temperature;BME280_humidity;BME280_pressure;Samples;Min_cycle;Max_cycle;Signal;HPM_P1;HPM_P2
2021/12/05 00:24:24;;;;;;;;;;;4.90;99.90;;;;;;4976018;28;19918;-59
2021/12/05 00:27:00;;;;;;;;;;;4.90;99.90;;;;;;4991524;28;19913;-59
2021/12/05 00:29:48;;;;;;;;;;;4.90;99.90;;;;;;4991399;28;19922;-59
2021/12/05 00:35:46;;;;;;;;;;;4.90;99.90;;;;;;4989229;28;20004;-61
2021/12/05 00:41:00;;;;;;;;;;;4.90;99.90;;;;;;4988942;28;19913;-59
2021/12/05 00:46:24;;;;;;;;;;;4.80;99.90;;;;;;4988828;28;19910;-60
2021/12/05 01:04:38;;;;;;;;;;;4.80;99.90;;;;;;4988844;28;19984;-59
2021/12/05 01:13:04;;;;;;;;;;;4.80;99.90;;;;;;4988614;28;19921;-59
2021/12/05 01:15:28;;;;;;;;;;;4.70;99.90;;;;;;4974738;28;20375;-59
2021/12/05 01:18:04;;;;;;;;;;;4.80;99.90;;;;;;4990435;28;19932;-59
2021/12/05 01:20:35;;;;;;;;;;;4.90;99.90;;;;;;4991608;28;19998;-59
2021/12/05 01:23:14;;;;;;;;;;;4.90;99.90;;;;;;4988426;28;19930;-60
2021/12/05 01:25:54;;;;;;;;;;;4.80;99.90;;;;;;4988711;28;19914;-61
2021/12/05 01:31:14;;;;;;;;;;;4.90;99.90;;;;;;4988172;28;19996;-60
2021/12/05 01:33:51;;;;;;;;;;;4.90;99.90;;;;;;4988281;28;19921;-60
2021/12/05 01:39:03;;;;;;;;;;;4.90;99.90;;;;;;4991117;28;19910;-60
2021/12/05 02:03:07;;;;;;;;;;;4.60;99.90;;;;;;4991125;28;19910;-59
2021/12/05 02:30:09;;;;;;;;;;;4.40;99.90;;;;;;5009813;28;19921;-61
2021/12/05 02:43:10;;;;;;;;;;;4.40;99.90;;;;;;5011317;28;20456;-60
2021/12/05 02:45:38;;;;;;;;;;;4.40;99.90;;;;;;5011230;28;20321;-59
2021/12/05 02:48:04;;;;;;;;;;;4.30;99.90;;;;;;5000513;28;20421;-61
2021/12/05 02:50:31;;;;;;;;;;;4.30;99.90;;;;;;4993815;28;19910;-59
2021/12/05 02:53:02;;;;;;;;;;;4.30;99.90;;;;;;4990930;28;19921;-58
2021/12/05 02:55:41;;;;;;;;;;;4.40;99.90;;;;;;4990915;28;19921;-59
2021/12/05 02:58:28;;;;;;;;;;;4.40;99.90;;;;;;4990698;28;19945;-59
2021/12/05 03:03:27;;;;;;;;;;;4.40;99.90;;;;;;4990878;28;20016;-59
2021/12/05 03:05:59;;;;;;;;;;;4.40;99.90;;;;;;4993400;28;19910;-59
2021/12/05 03:08:26;;;;;;;;;;;4.40;99.90;;;;;;4992644;28;19917;-57
2021/12/05 03:10:53;;;;;;;;;;;4.30;99.90;;;;;;4990492;28;20326;-60
2021/12/05 03:13:19;;;;;;;;;;;4.30;99.90;;;;;;4990228;28;19996;-62
2021/12/05 03:15:44;;;;;;;;;;;4.30;99.90;;;;;;4991176;28;20342;-59
2021/12/05 03:18:10;;;;;;;;;;;4.30;99.90;;;;;;4990572;28;20458;-57
2021/12/05 03:20:36;;;;;;;;;;;4.30;99.90;;;;;;4994124;28;19916;-58
2021/12/05 03:23:01;;;;;;;;;;;4.20;99.90;;;;;;4990157;28;19914;-59
2021/12/05 03:25:27;;;;;;;;;;;4.20;99.90;;;;;;4990333;28;20429;-59
2021/12/05 03:27:52;;;;;;;;;;;4.20;99.90;;;;;;4992241;28;19922;-58
2021/12/05 03:30:21;;;;;;;;;;;4.20;99.90;;;;;;4990384;28;19925;-60
2021/12/05 03:32:48;;;;;;;;;;;4.20;99.90;;;;;;4992749;28;19909;-59
2021/12/05 03:35:14;;;;;;;;;;;4.20;99.90;;;;;;4991729;28;19914;-59
2021/12/05 03:37:40;;;;;;;;;;;4.10;99.90;;;;;;4989077;28;19932;-60
2021/12/05 03:40:06;;;;;;;;;;;4.10;99.90;;;;;;4990264;28;19957;-60
2021/12/05 03:42:32;;;;;;;;;;;4.10;99.90;;;;;;4990497;28;19914;-58
2021/12/05 03:44:57;;;;;;;;;;;4.10;99.90;;;;;;4990568;28;19910;-59
2021/12/05 03:47:27;;;;;;;;;;;4.10;99.90;;;;;;4991669;28;19910;-60
2021/12/05 03:49:53;;;;;;;;;;;4.10;99.90;;;;;;4990616;28;19914;-60
2021/12/05 03:52:18;;;;;;;;;;;4.10;99.90;;;;;;4989555;28;19918;-59
2021/12/05 03:54:45;;;;;;;;;;;4.10;99.90;;;;;;4989858;28;19960;-59
2021/12/05 03:57:10;;;;;;;;;;;4.00;99.90;;;;;;4989871;28;19949;-59
2021/12/05 03:59:36;;;;;;;;;;;4.00;99.90;;;;;;4993362;28;19964;-59
2021/12/05 04:02:03;;;;;;;;;;;4.00;99.90;;;;;;4989622;28;20363;-60
2021/12/05 04:04:29;;;;;;;;;;;4.10;99.90;;;;;;4989540;28;19914;-59
2021/12/05 04:06:54;;;;;;;;;;;4.10;99.90;;;;;;4989350;28;19925;-59
2021/12/05 04:09:20;;;;;;;;;;;4.10;99.90;;;;;;4990202;28;20005;-59
2021/12/05 04:11:56;;;;;;;;;;;4.10;99.90;;;;;;4991956;28;20003;-61
2021/12/05 04:14:22;;;;;;;;;;;4.10;99.90;;;;;;4991187;28;19909;-60
2021/12/05 04:16:48;;;;;;;;;;;4.00;99.90;;;;;;4989643;28;20060;-59
2021/12/05 04:19:13;;;;;;;;;;;4.00;99.90;;;;;;4990019;28;20012;-60
2021/12/05 04:21:39;;;;;;;;;;;4.00;99.90;;;;;;4989195;28;19957;-60
2021/12/05 04:24:06;;;;;;;;;;;4.00;99.90;;;;;;4989946;28;20379;-61
2021/12/05 04:26:32;;;;;;;;;;;4.00;99.90;;;;;;4992243;28;19940;-59
2021/12/05 04:28:57;;;;;;;;;;;4.00;99.90;;;;;;4989767;28;19944;-59
2021/12/05 04:31:23;;;;;;;;;;;4.10;99.90;;;;;;4988873;28;20413;-59
2021/12/05 04:33:49;;;;;;;;;;;4.00;99.90;;;;;;4989138;28;20004;-61
2021/12/05 04:36:15;;;;;;;;;;;4.00;99.90;;;;;;4989291;28;19922;-59
2021/12/05 04:38:40;;;;;;;;;;;4.00;99.90;;;;;;4992517;28;19917;-59
2021/12/05 04:41:06;;;;;;;;;;;4.00;99.90;;;;;;4989411;28;19910;-59
2021/12/05 04:43:37;;;;;;;;;;;4.00;99.90;;;;;;4988869;28;19925;-60
2021/12/05 04:46:07;;;;;;;;;;;4.00;99.90;;;;;;4989222;28;19922;-60
2021/12/05 04:48:33;;;;;;;;;;;3.90;99.90;;;;;;4989097;28;19963;-59
2021/12/05 04:50:59;;;;;;;;;;;3.90;99.90;;;;;;4989355;28;20358;-59
2021/12/05 04:53:27;;;;;;;;;;;3.90;99.90;;;;;;4990687;28;20000;-59
2021/12/05 04:55:52;;;;;;;;;;;3.90;99.90;;;;;;4988741;28;20379;-59
2021/12/05 04:58:18;;;;;;;;;;;3.90;99.90;;;;;;4990017;28;19929;-59
2021/12/05 05:00:44;;;;;;;;;;;3.90;99.90;;;;;;4988720;28;19924;-60
2021/12/05 05:03:11;;;;;;;;;;;3.80;99.90;;;;;;4988955;28;20384;-58
2021/12/05 05:05:41;;;;;;;;;;;3.80;99.90;;;;;;4988242;28;19910;-60
2021/12/05 05:08:06;;;;;;;;;;;3.90;99.90;;;;;;4990910;28;19918;-60
2021/12/05 05:10:32;;;;;;;;;;;3.80;99.90;;;;;;4988099;28;19921;-59
2021/12/05 05:12:58;;;;;;;;;;;3.90;99.90;;;;;;4988580;28;19914;-60
2021/12/05 05:15:27;;;;;;;;;;;3.90;99.90;;;;;;4988893;28;19976;-60
2021/12/05 05:17:54;;;;;;;;;;;3.90;99.90;;;;;;4990777;28;19917;-60
2021/12/05 05:20:29;;;;;;;;;;;3.90;99.90;;;;;;4989214;28;19916;-58
2021/12/05 05:49:24;;;;;;;;;;;4.10;99.90;;;;;;5008019;28;19921;-60
2021/12/05 05:51:49;;;;;;;;;;;4.10;99.90;;;;;;5007960;28;19920;-59
2021/12/05 05:54:16;;;;;;;;;;;4.10;99.90;;;;;;5007817;28;19961;-60
2021/12/05 05:56:44;;;;;;;;;;;4.20;99.90;;;;;;5008779;28;20008;-60
2021/12/05 05:59:26;;;;;;;;;;;4.20;99.90;;;;;;5008655;28;19929;-59
2021/12/05 06:04:18;;;;;;;;;;;4.20;99.90;;;;;;5011501;28;20435;-59
2021/12/05 06:06:44;;;;;;;;;;;4.20;99.90;;;;;;5011875;28;19925;-61
2021/12/05 06:09:09;;;;;;;;;;;4.20;99.90;;;;;;4992848;28;19925;-59
2021/12/05 06:11:35;;;;;;;;;;;4.20;99.90;;;;;;4995503;28;19914;-60
2021/12/05 06:14:01;;;;;;;;;;;4.20;99.90;;;;;;4991686;28;19920;-60
2021/12/05 06:16:27;;;;;;;;;;;4.20;99.90;;;;;;4991796;28;19918;-60
2021/12/05 06:18:53;;;;;;;;;;;4.20;99.90;;;;;;4991357;28;20012;-59
2021/12/05 06:21:18;;;;;;;;;;;4.20;99.90;;;;;;4991920;28;19914;-60
2021/12/05 06:23:44;;;;;;;;;;;4.20;99.90;;;;;;4994331;28;19913;-59
2021/12/05 06:26:11;;;;;;;;;;;4.30;99.90;;;;;;4992775;28;19917;-59
2021/12/05 06:28:42;;;;;;;;;;;4.30;99.90;;;;;;4991386;28;19922;-59
2021/12/05 06:31:30;;;;;;;;;;;4.30;99.90;;;;;;4991568;28;19914;-61
2021/12/05 06:36:59;;;;;;;;;;;4.30;99.90;;;;;;4991678;28;20409;-61
2021/12/05 06:39:42;;;;;;;;;;;4.30;99.90;;;;;;4977999;28;19921;-60
2021/12/05 06:47:29;;;;;;;;;;;4.30;99.90;;;;;;4993785;28;19917;-58
2021/12/05 06:49:56;;;;;;;;;;;4.30;99.90;;;;;;4990949;28;19922;-59
2021/12/05 06:52:22;;;;;;;;;;;4.30;99.90;;;;;;4991307;28;20374;-59
2021/12/05 06:54:48;;;;;;;;;;;4.30;99.90;;;;;;4991147;28;19965;-61
2021/12/05 06:57:13;;;;;;;;;;;4.20;99.90;;;;;;4991260;28;19979;-59
2021/12/05 06:59:40;;;;;;;;;;;4.30;99.90;;;;;;4994522;28;19918;-60
2021/12/05 07:02:07;;;;;;;;;;;4.30;99.90;;;;;;4991109;28;19947;-61
2021/12/05 07:07:02;;;;;;;;;;;4.40;99.90;;;;;;4990757;28;20016;-58
2021/12/05 07:09:28;;;;;;;;;;;4.40;99.90;;;;;;4990656;28;20418;-60
2021/12/05 07:17:08;;;;;;;;;;;4.60;99.90;;;;;;4990271;28;19921;-59
2021/12/05 07:22:23;;;;;;;;;;;4.60;99.90;;;;;;4990155;28;19918;-61
2021/12/05 07:24:53;;;;;;;;;;;4.60;99.90;;;;;;4990514;28;19964;-58
2021/12/05 07:40:58;;;;;;;;;;;4.60;99.90;;;;;;4990168;28;20063;-59
2021/12/05 07:43:24;;;;;;;;;;;4.60;99.90;;;;;;4990226;28;19925;-60
2021/12/05 07:45:56;;;;;;;;;;;4.60;99.90;;;;;;4989535;28;19913;-60
2021/12/05 07:48:27;;;;;;;;;;;4.60;99.90;;;;;;4989793;28;19929;-60
2021/12/05 07:51:14;;;;;;;;;;;4.70;99.90;;;;;;4991914;28;19914;-60
2021/12/05 07:53:56;;;;;;;;;;;4.70;99.90;;;;;;4989330;28;19909;-59
2021/12/05 07:56:44;;;;;;;;;;;4.70;99.90;;;;;;4990901;28;20386;-60
2021/12/05 08:15:25;;;;;;;;;;;5.00;99.90;;;;;;4974951;28;20410;-60
2021/12/05 08:17:55;;;;;;;;;;;5.10;99.90;;;;;;4989121;28;19918;-60
2021/12/05 08:20:34;;;;;;;;;;;5.10;99.90;;;;;;4982721;28;20240;-60
2021/12/05 08:23:00;;;;;;;;;;;5.10;99.90;;;;;;4978526;28;19920;-60
2021/12/05 08:25:28;;;;;;;;;;;5.10;99.90;;;;;;4983041;28;19913;-61
2021/12/05 08:28:02;;;;;;;;;;;5.10;99.90;;;;;;4984453;28;20013;-60
2021/12/05 08:30:33;;;;;;;;;;;5.20;99.90;;;;;;4979857;28;19918;-61
2021/12/05 08:33:27;;;;;;;;;;;5.10;99.90;;;;;;4978365;28;19914;-59
2021/12/05 08:44:23;;;;;;;;;;;5.20;99.90;;;;;;5000521;28;19913;-59
2021/12/05 10:02:23;;;;;;;;;;;6.30;99.90;;;;;;4985947;28;20386;-59
2021/12/05 10:13:08;;;;;;;;;;;6.30;99.90;;;;;;5005520;28;19913;-59
2021/12/05 10:37:36;;;;;;;;;;;6.60;99.90;;;;;;5006554;28;19913;-59
2021/12/05 10:40:01;;;;;;;;;;;6.70;99.90;;;;;;5006898;28;19914;-60
2021/12/05 10:43:01;;;;;;;;;;;6.70;99.90;;;;;;5007399;28;20341;-59
2021/12/05 10:45:23;;;;;;;;;;;6.70;99.90;;;;;;5002024;28;20408;-59
2021/12/05 10:47:50;;;;;;;;;;;6.70;99.90;;;;;;4992932;28;20487;-60
2021/12/05 10:50:33;;;;;;;;;;;6.70;99.90;;;;;;4984962;28;19953;-59
2021/12/05 10:53:17;;;;;;;;;;;6.80;99.90;;;;;;4982945;28;19921;-58
2021/12/05 10:55:43;;;;;;;;;;;6.70;99.90;;;;;;4987027;28;19914;-59
2021/12/05 10:58:08;;;;;;;;;;;6.70;99.90;;;;;;4982737;28;20414;-59
2021/12/05 11:00:34;;;;;;;;;;;6.70;99.90;;;;;;4981262;28;19922;-58
2021/12/05 11:03:15;;;;;;;;;;;6.80;99.90;;;;;;4983526;28;19915;-60
2021/12/05 11:05:42;;;;;;;;;;;6.70;99.90;;;;;;4979378;28;19922;-59
2021/12/05 11:08:27;;;;;;;;;;;6.80;99.90;;;;;;4987437;28;19968;-58
2021/12/05 11:11:04;;;;;;;;;;;6.90;99.90;;;;;;4984580;28;19914;-57
2021/12/05 11:13:30;;;;;;;;;;;7.00;99.90;;;;;;4982226;28;19918;-59
2021/12/05 11:15:56;;;;;;;;;;;7.10;99.90;;;;;;4984195;28;19921;-59
2021/12/05 11:18:40;;;;;;;;;;;7.20;99.90;;;;;;4982456;28;20402;-59
2021/12/05 11:21:30;;;;;;;;;;;7.30;99.90;;;;;;4982833;28;20086;-59
2021/12/05 11:24:08;;;;;;;;;;;7.30;99.90;;;;;;4982599;28;19918;-58
2021/12/05 11:26:34;;;;;;;;;;;7.20;99.90;;;;;;4987575;28;19925;-58
2021/12/05 11:29:00;;;;;;;;;;;7.20;99.90;;;;;;4983872;28;19922;-59
2021/12/05 11:31:27;;;;;;;;;;;7.20;99.90;;;;;;4984457;28;19918;-58
2021/12/05 11:33:56;;;;;;;;;;;7.20;99.90;;;;;;4983659;28;20011;-60
2021/12/05 11:36:23;;;;;;;;;;;7.10;99.90;;;;;;4981136;28;19941;-59
2021/12/05 11:38:49;;;;;;;;;;;6.90;99.90;;;;;;4982014;28;20347;-59
2021/12/05 11:41:20;;;;;;;;;;;6.70;99.90;;;;;;4984144;28;20025;-59
2021/12/05 11:43:54;;;;;;;;;;;6.60;99.90;;;;;;4985074;28;19914;-59
2021/12/05 11:46:20;;;;;;;;;;;6.50;99.90;;;;;;4982657;28;19946;-57
2021/12/05 11:48:47;;;;;;;;;;;6.60;99.90;;;;;;4981030;28;20008;-58
2021/12/05 11:51:28;;;;;;;;;;;6.60;99.90;;;;;;4981553;28;19925;-59
2021/12/05 11:54:09;;;;;;;;;;;6.60;99.90;;;;;;4981725;28;19914;-59
2021/12/05 11:56:34;;;;;;;;;;;6.40;99.90;;;;;;4982776;28;19917;-60
2021/12/05 11:59:18;;;;;;;;;;;6.40;99.90;;;;;;4981062;28;19922;-60
2021/12/05 12:01:55;;;;;;;;;;;6.30;99.90;;;;;;4983924;28;19914;-60
2021/12/05 12:04:25;;;;;;;;;;;6.20;99.90;;;;;;4982883;28;20079;-59
2021/12/05 12:07:09;;;;;;;;;;;5.70;99.90;;;;;;4980547;28;19917;-59
2021/12/05 12:09:35;;;;;;;;;;;5.60;99.90;;;;;;4981746;28;19933;-59
2021/12/05 12:12:01;;;;;;;;;;;5.40;99.90;;;;;;4982807;28;19918;-57
2021/12/05 12:14:27;;;;;;;;;;;5.20;99.90;;;;;;4983407;28;19914;-59
2021/12/05 12:16:53;;;;;;;;;;;5.00;99.90;;;;;;4982035;28;19917;-57
2021/12/05 12:19:22;;;;;;;;;;;4.90;99.90;;;;;;4980590;28;20289;-59
2021/12/05 12:21:49;;;;;;;;;;;4.90;99.90;;;;;;4980645;28;19929;-58
2021/12/05 12:24:15;;;;;;;;;;;4.80;99.90;;;;;;4981148;28;19932;-59
2021/12/05 12:26:41;;;;;;;;;;;4.70;99.90;;;;;;4986368;28;20363;-60
2021/12/05 12:29:09;;;;;;;;;;;4.80;99.90;;;;;;4981208;28;19930;-59
2021/12/05 12:31:36;;;;;;;;;;;4.80;99.90;;;;;;4986249;28;20421;-58
2021/12/05 12:34:09;;;;;;;;;;;4.80;99.90;;;;;;4982215;28;19921;-60
2021/12/05 12:36:45;;;;;;;;;;;4.90;99.90;;;;;;4981210;28;19917;-59
2021/12/05 12:39:17;;;;;;;;;;;4.80;99.90;;;;;;4979677;28;19922;-60
2021/12/05 12:42:01;;;;;;;;;;;4.80;99.90;;;;;;4982122;28;20053;-60
2021/12/05 12:44:27;;;;;;;;;;;4.80;99.90;;;;;;4979971;28;20341;-60
2021/12/05 12:46:59;;;;;;;;;;;4.80;99.90;;;;;;4981139;28;20012;-60
2021/12/05 12:49:28;;;;;;;;;;;4.70;99.90;;;;;;4981741;28;20014;-60
2021/12/05 12:51:59;;;;;;;;;;;4.60;99.90;;;;;;4982566;28;19914;-58
2021/12/05 12:54:28;;;;;;;;;;;4.70;99.90;;;;;;4981457;28;19921;-59
2021/12/05 12:57:18;;;;;;;;;;;4.70;99.90;;;;;;4979796;28;19925;-59
2021/12/05 13:00:04;;;;;;;;;;;4.80;99.90;;;;;;4981465;28;19925;-59
2021/12/05 13:02:56;;;;;;;;;;;4.80;99.90;;;;;;4979362;28;19922;-59
2021/12/05 13:11:02;;;;;;;;;;;4.80;99.90;;;;;;4978814;28;20010;-61
2021/12/05 13:13:29;;;;;;;;;;;4.80;99.90;;;;;;4982786;28;19914;-59
2021/12/05 13:15:59;;;;;;;;;;;4.90;99.90;;;;;;4980063;28;19925;-59
2021/12/05 13:18:30;;;;;;;;;;;4.90;99.90;;;;;;4980888;28;20402;-59
2021/12/05 13:21:02;;;;;;;;;;;5.00;99.90;;;;;;4992566;28;20407;-61
2021/12/05 13:23:36;;;;;;;;;;;5.00;99.90;;;;;;4980196;28;19914;-60
2021/12/05 13:26:11;;;;;;;;;;;5.00;99.90;;;;;;4982342;28;20327;-61
2021/12/05 13:28:36;;;;;;;;;;;5.10;99.90;;;;;;4978536;28;19945;-61
2021/12/05 13:31:21;;;;;;;;;;;5.20;99.90;;;;;;4980069;28;20382;-60
2021/12/05 13:33:47;;;;;;;;;;;5.20;99.90;;;;;;4980561;28;19913;-59
2021/12/05 13:36:42;;;;;;;;;;;5.30;99.90;;;;;;4984746;28;20275;-61
2021/12/05 13:39:26;;;;;;;;;;;5.30;99.90;;;;;;4981705;28;19922;-60
2021/12/05 13:42:00;;;;;;;;;;;5.30;99.90;;;;;;4984053;28;19996;-60
2021/12/05 13:44:46;;;;;;;;;;;5.40;99.90;;;;;;4982104;28;20366;-60
2021/12/05 13:47:15;;;;;;;;;;;5.40;99.90;;;;;;4978807;28;19922;-60
2021/12/05 13:49:41;;;;;;;;;;;5.40;99.90;;;;;;4982059;28;20493;-60
2021/12/05 13:52:28;;;;;;;;;;;5.40;99.90;;;;;;4980818;28;19940;-59
2021/12/05 13:54:53;;;;;;;;;;;5.40;99.90;;;;;;4981375;28;19914;-61
2021/12/05 13:57:20;;;;;;;;;;;5.40;99.90;;;;;;4979968;28;20610;-60
2021/12/05 13:59:45;;;;;;;;;;;5.50;99.90;;;;;;4981864;28;19921;-61
2021/12/05 14:02:13;;;;;;;;;;;5.50;99.90;;;;;;4981348;28;20008;-59
2021/12/05 14:04:39;;;;;;;;;;;5.60;99.90;;;;;;4980729;28;19918;-61
2021/12/05 14:07:05;;;;;;;;;;;5.70;99.90;;;;;;4980336;28;19941;-61
2021/12/05 14:09:33;;;;;;;;;;;5.70;99.90;;;;;;4979797;28;19960;-61
2021/12/05 14:11:59;;;;;;;;;;;5.80;99.90;;;;;;4981190;28;19961;-61
2021/12/05 14:14:35;;;;;;;;;;;5.70;99.90;;;;;;4980874;28;19914;-61
2021/12/05 14:17:01;;;;;;;;;;;5.80;99.90;;;;;;4980545;28;19917;-61
2021/12/05 14:19:29;;;;;;;;;;;5.70;99.90;;;;;;4981862;28;20008;-60
2021/12/05 14:21:55;;;;;;;;;;;5.70;99.90;;;;;;4980303;28;19914;-59
2021/12/05 14:24:22;;;;;;;;;;;5.70;99.90;;;;;;4984506;28;20335;-60
2021/12/05 14:26:53;;;;;;;;;;;5.80;99.90;;;;;;5003343;28;20395;-60
2021/12/05 14:29:21;;;;;;;;;;;5.80;99.90;;;;;;4984910;28;19929;-58
2021/12/05 14:32:07;;;;;;;;;;;5.80;99.90;;;;;;4985648;28;19918;-60
2021/12/05 14:34:33;;;;;;;;;;;5.90;99.90;;;;;;4985157;28;19917;-59
2021/12/05 14:37:01;;;;;;;;;;;5.80;99.90;;;;;;4984317;28;19968;-59
2021/12/05 14:39:29;;;;;;;;;;;5.90;99.90;;;;;;4983049;28;19936;-59
2021/12/05 14:41:59;;;;;;;;;;;5.80;99.90;;;;;;4986556;28;20349;-59
2021/12/05 14:44:25;;;;;;;;;;;5.80;99.90;;;;;;4986996;28;19914;-59
2021/12/05 14:47:03;;;;;;;;;;;5.80;99.90;;;;;;4987277;28;19924;-60
2021/12/05 14:49:30;;;;;;;;;;;5.80;99.90;;;;;;4984431;28;20466;-59
2021/12/05 14:51:56;;;;;;;;;;;5.80;99.90;;;;;;4984997;28;19922;-60
2021/12/05 14:54:40;;;;;;;;;;;5.90;99.90;;;;;;4983212;28;19961;-59
2021/12/05 14:57:07;;;;;;;;;;;5.90;99.90;;;;;;4982846;28;19922;-60
2021/12/05 14:59:33;;;;;;;;;;;6.00;99.90;;;;;;4984224;28;19924;-60
2021/12/05 15:01:59;;;;;;;;;;;5.90;99.90;;;;;;4985889;28;20387;-60
2021/12/05 15:04:28;;;;;;;;;;;6.00;99.90;;;;;;4983215;28;19913;-61
2021/12/05 15:06:53;;;;;;;;;;;6.00;99.90;;;;;;4983441;28;19918;-60
2021/12/05 15:09:21;;;;;;;;;;;6.00;99.90;;;;;;4982961;28;20095;-60
2021/12/05 15:11:54;;;;;;;;;;;6.00;99.90;;;;;;4985878;28;19968;-62
2021/12/05 15:14:20;;;;;;;;;;;6.00;99.90;;;;;;4982920;28;20303;-61
2021/12/05 15:16:53;;;;;;;;;;;6.10;99.90;;;;;;4985485;28;19918;-61
2021/12/05 15:19:18;;;;;;;;;;;6.10;99.90;;;;;;4983011;28;19913;-60
2021/12/05 15:21:44;;;;;;;;;;;6.10;99.90;;;;;;4986789;28;20394;-60
2021/12/05 15:24:13;;;;;;;;;;;6.10;99.90;;;;;;4985415;28;19954;-60
2021/12/05 15:26:39;;;;;;;;;;;6.10;99.90;;;;;;4988798;28;19925;-60
2021/12/05 15:29:05;;;;;;;;;;;6.20;99.90;;;;;;4984265;28;20413;-60
2021/12/05 15:31:38;;;;;;;;;;;6.10;99.90;;;;;;4984524;28;20024;-62
2021/12/05 15:34:16;;;;;;;;;;;6.10;99.90;;;;;;4983647;28;19914;-60
2021/12/05 15:36:42;;;;;;;;;;;6.10;99.90;;;;;;4981578;28;19925;-60
2021/12/05 15:39:23;;;;;;;;;;;6.10;99.90;;;;;;4982292;28;19914;-60
2021/12/05 15:41:49;;;;;;;;;;;6.20;99.90;;;;;;4983868;28;19921;-59
2021/12/05 15:44:27;;;;;;;;;;;6.10;99.90;;;;;;4987890;28;20049;-59
2021/12/05 15:47:07;;;;;;;;;;;6.10;99.90;;;;;;4986733;28;19917;-57
2021/12/05 15:49:47;;;;;;;;;;;6.10;99.90;;;;;;4983659;28;19925;-60
2021/12/05 15:52:12;;;;;;;;;;;6.10;99.90;;;;;;4982673;28;19925;-57
2021/12/05 15:54:41;;;;;;;;;;;6.00;99.90;;;;;;4981181;28;19914;-57
2021/12/05 15:57:10;;;;;;;;;;;6.00;99.90;;;;;;4981942;28;19929;-58
2021/12/05 15:59:39;;;;;;;;;;;6.00;99.90;;;;;;4983471;28;20065;-57
2021/12/05 16:02:08;;;;;;;;;;;6.10;99.90;;;;;;4981170;28;19918;-59
2021/12/05 16:04:33;;;;;;;;;;;6.00;99.90;;;;;;4983087;28;19914;-60
2021/12/05 16:07:02;;;;;;;;;;;6.00;99.90;;;;;;4982879;28;20318;-59
2021/12/05 16:09:28;;;;;;;;;;;6.00;99.90;;;;;;4987934;28;20445;-59
2021/12/05 16:12:13;;;;;;;;;;;6.00;99.90;;;;;;4981121;28;19922;-60
2021/12/05 16:14:44;;;;;;;;;;;6.00;99.90;;;;;;4999773;28;19918;-58
2021/12/05 16:17:20;;;;;;;;;;;6.00;99.90;;;;;;4981799;28;19915;-57
2021/12/05 16:20:06;;;;;;;;;;;6.10;99.90;;;;;;4983574;28;19918;-59
2021/12/05 16:22:32;;;;;;;;;;;6.10;99.90;;;;;;4982309;28;19962;-57
2021/12/05 16:25:16;;;;;;;;;;;6.10;99.90;;;;;;4982590;28;19957;-59
2021/12/05 16:27:53;;;;;;;;;;;6.10;99.90;;;;;;4982264;28;19915;-60
2021/12/05 16:30:26;;;;;;;;;;;6.10;99.90;;;;;;4979088;28;20394;-58
2021/12/05 16:32:52;;;;;;;;;;;6.10;99.90;;;;;;4989591;28;20363;-58
2021/12/05 16:35:28;;;;;;;;;;;6.10;99.90;;;;;;4982931;28;19913;-59
2021/12/05 16:37:54;;;;;;;;;;;6.20;99.90;;;;;;4988891;28;19921;-59
2021/12/05 16:40:20;;;;;;;;;;;6.20;99.90;;;;;;4984682;28;19957;-56
2021/12/05 16:42:45;;;;;;;;;;;6.20;99.90;;;;;;4980222;28;19918;-60
2021/12/05 16:45:11;;;;;;;;;;;6.20;99.90;;;;;;4989398;28;19922;-61
2021/12/05 16:47:37;;;;;;;;;;;6.10;99.90;;;;;;4990352;28;19910;-59
2021/12/05 16:50:03;;;;;;;;;;;6.10;99.90;;;;;;5002681;28;19922;-58
2021/12/05 16:52:33;;;;;;;;;;;6.10;99.90;;;;;;4988585;28;20417;-56
2021/12/05 16:55:03;;;;;;;;;;;6.10;99.90;;;;;;4988794;28;19921;-58
2021/12/05 16:57:35;;;;;;;;;;;6.10;99.90;;;;;;4982760;28;19929;-61
2021/12/05 17:00:03;;;;;;;;;;;6.20;99.90;;;;;;4990623;28;20346;-56
2021/12/05 17:02:29;;;;;;;;;;;6.20;99.90;;;;;;4979739;28;19910;-57
2021/12/05 17:05:01;;;;;;;;;;;6.10;99.90;;;;;;4986110;28;19918;-59
2021/12/05 17:07:42;;;;;;;;;;;6.10;99.90;;;;;;4988017;28;20060;-58
2021/12/05 17:10:10;;;;;;;;;;;6.20;99.90;;;;;;4987852;28;19940;-60
2021/12/05 17:12:36;;;;;;;;;;;6.20;99.90;;;;;;4981412;28;19922;-58
2021/12/05 17:15:20;;;;;;;;;;;6.20;99.90;;;;;;4976336;28;19933;-58
2021/12/05 17:17:46;;;;;;;;;;;6.20;99.90;;;;;;4988786;28;19967;-58
2021/12/05 17:20:18;;;;;;;;;;;6.20;99.90;;;;;;4988509;28;20057;-58
2021/12/05 17:23:10;;;;;;;;;;;6.10;99.90;;;;;;4988029;28;19918;-58
2021/12/05 17:25:38;;;;;;;;;;;6.10;99.90;;;;;;4988457;28;19921;-56
2021/12/05 17:28:06;;;;;;;;;;;6.20;99.90;;;;;;4979080;28;19917;-58
2021/12/05 17:30:31;;;;;;;;;;;6.20;99.90;;;;;;4988322;28;19918;-59
2021/12/05 17:32:58;;;;;;;;;;;6.10;99.90;;;;;;4985547;28;19925;-59
2021/12/05 17:35:27;;;;;;;;;;;6.20;99.90;;;;;;4989435;28;19910;-59
2021/12/05 17:37:53;;;;;;;;;;;6.10;99.90;;;;;;4986824;28;19989;-58
2021/12/05 17:40:19;;;;;;;;;;;6.10;99.90;;;;;;4988005;28;20005;-59
2021/12/05 17:42:45;;;;;;;;;;;6.00;99.90;;;;;;4988007;28;19913;-59
2021/12/05 17:45:11;;;;;;;;;;;6.00;99.90;;;;;;4988742;28;20017;-59
2021/12/05 17:47:37;;;;;;;;;;;6.10;99.90;;;;;;4990942;28;19920;-59
2021/12/05 17:50:05;;;;;;;;;;;6.10;99.90;;;;;;4987820;28;19996;-59
2021/12/05 17:52:32;;;;;;;;;;;6.10;99.90;;;;;;4988606;28;20392;-59
2021/12/05 17:55:04;;;;;;;;;;;6.10;99.90;;;;;;4985913;28;19920;-58
2021/12/05 17:57:41;;;;;;;;;;;6.20;99.90;;;;;;4989597;28;20575;-60
2021/12/05 18:02:56;;;;;;;;;;;6.20;99.90;;;;;;4990662;28;19992;-59
2021/12/05 18:05:22;;;;;;;;;;;6.20;99.90;;;;;;4994517;28;19957;-60
2021/12/05 18:07:49;;;;;;;;;;;6.20;99.90;;;;;;4991533;28;19913;-58
2021/12/05 18:10:16;;;;;;;;;;;6.20;99.90;;;;;;4990226;28;20501;-58
2021/12/05 18:12:43;;;;;;;;;;;6.20;99.90;;;;;;4987602;28;19948;-58
2021/12/05 18:15:13;;;;;;;;;;;6.20;99.90;;;;;;4992598;28;19962;-58
2021/12/05 18:17:40;;;;;;;;;;;6.20;99.90;;;;;;4994849;28;20404;-57
2021/12/05 18:20:06;;;;;;;;;;;6.20;99.90;;;;;;4991413;28;19972;-58
2021/12/05 18:22:32;;;;;;;;;;;6.20;99.90;;;;;;4992499;28;19921;-58
2021/12/05 18:24:57;;;;;;;;;;;6.20;99.90;;;;;;4993479;28;19917;-59
2021/12/05 18:27:23;;;;;;;;;;;6.20;99.90;;;;;;4982514;28;19930;-61
2021/12/05 18:29:49;;;;;;;;;;;6.10;99.90;;;;;;4994033;28;19932;-60
2021/12/05 18:32:15;;;;;;;;;;;6.20;99.90;;;;;;4991925;28;19914;-62
2021/12/05 18:34:41;;;;;;;;;;;6.20;99.90;;;;;;4990997;28;20433;-60
2021/12/05 18:37:08;;;;;;;;;;;6.20;99.90;;;;;;4990786;28;19914;-59
2021/12/05 18:39:37;;;;;;;;;;;6.20;99.90;;;;;;4990632;28;19914;-60
2021/12/05 18:42:06;;;;;;;;;;;6.20;99.90;;;;;;4992284;28;20012;-60
2021/12/05 18:44:35;;;;;;;;;;;6.30;99.90;;;;;;4993302;28;19910;-59
2021/12/05 18:47:01;;;;;;;;;;;6.20;99.90;;;;;;4990404;28;20021;-60
2021/12/05 18:49:29;;;;;;;;;;;6.20;99.90;;;;;;4990398;28;20016;-59
2021/12/05 18:51:55;;;;;;;;;;;6.20;99.90;;;;;;4990378;28;19914;-60
2021/12/05 18:54:20;;;;;;;;;;;6.20;99.90;;;;;;4990672;28;19925;-60
2021/12/05 18:56:46;;;;;;;;;;;6.20;99.90;;;;;;4984550;28;19922;-61
2021/12/05 18:59:12;;;;;;;;;;;6.20;99.90;;;;;;4992151;28;20306;-60
2021/12/05 19:04:38;;;;;;;;;;;6.20;99.90;;;;;;4985568;28;19920;-59
2021/12/05 19:07:10;;;;;;;;;;;6.30;99.90;;;;;;4990316;28;19948;-60
2021/12/05 19:12:22;;;;;;;;;;;6.20;99.90;;;;;;4986017;28;20044;-60
2021/12/05 19:14:49;;;;;;;;;;;6.20;99.90;;;;;;4986165;28;19933;-62
2021/12/05 19:17:16;;;;;;;;;;;6.20;99.90;;;;;;4991136;28;20375;-59
2021/12/05 19:19:44;;;;;;;;;;;6.20;99.90;;;;;;4990248;28;19921;-60
2021/12/05 19:22:11;;;;;;;;;;;6.30;99.90;;;;;;4989640;28;19914;-59
2021/12/05 19:24:37;;;;;;;;;;;6.20;99.90;;;;;;4989694;28;19925;-59
2021/12/05 19:27:03;;;;;;;;;;;6.20;99.90;;;;;;4987961;28;20294;-59
2021/12/05 19:29:30;;;;;;;;;;;6.30;99.90;;;;;;4993109;28;20017;-60
2021/12/05 19:31:57;;;;;;;;;;;6.30;99.90;;;;;;4987402;28;19917;-59
2021/12/05 19:34:24;;;;;;;;;;;6.20;99.90;;;;;;4989574;28;20283;-58
2021/12/05 19:36:49;;;;;;;;;;;6.20;99.90;;;;;;4986854;28;19910;-58
2021/12/05 19:39:16;;;;;;;;;;;6.20;99.90;;;;;;4978665;28;19948;-60
2021/12/05 19:41:42;;;;;;;;;;;6.30;99.90;;;;;;4979660;28;20287;-60
2021/12/05 19:44:07;;;;;;;;;;;6.30;99.90;;;;;;4989468;28;20394;-60
2021/12/05 19:46:35;;;;;;;;;;;6.20;99.90;;;;;;4989333;28;19924;-61
2021/12/05 19:49:02;;;;;;;;;;;6.20;99.90;;;;;;4988444;28;19918;-61
2021/12/05 19:51:28;;;;;;;;;;;6.20;99.90;;;;;;4988870;28;19914;-61
2021/12/05 19:53:54;;;;;;;;;;;6.20;99.90;;;;;;4992373;28;20466;-62
2021/12/05 19:56:22;;;;;;;;;;;6.20;99.90;;;;;;4990388;28;19917;-60
2021/12/05 19:58:48;;;;;;;;;;;6.30;99.90;;;;;;4989238;28;19932;-59
2021/12/05 20:01:14;;;;;;;;;;;6.30;99.90;;;;;;4982379;28;20012;-59
2021/12/05 20:03:40;;;;;;;;;;;6.40;99.90;;;;;;4984824;28;20004;-60
2021/12/05 20:06:06;;;;;;;;;;;6.30;99.90;;;;;;4988739;28;19957;-60
2021/12/05 20:08:32;;;;;;;;;;;6.40;99.90;;;;;;4984261;28;19949;-60
2021/12/05 20:10:59;;;;;;;;;;;6.40;99.90;;;;;;4985170;28;19954;-60